createdAt,value
2018-05-04T00:00:27.530Z,15.45
2018-05-04T00:01:27.473Z,15.51
2018-05-04T00:02:27.418Z,15.45
2018-05-04T00:03:27.364Z,15.43
2018-05-04T00:04:27.311Z,15.43
2018-05-04T00:05:27.254Z,15.38
2018-05-04T00:06:27.199Z,15.39
2018-05-04T00:07:27.144Z,15.33
2018-05-04T00:08:27.088Z,15.33
2018-05-04T00:09:27.033Z,15.27
2018-05-04T00:10:26.978Z,15.33
2018-05-04T00:11:26.924Z,15.27
2018-05-04T00:12:26.868Z,15.33
2018-05-04T00:13:26.813Z,15.36
2018-05-04T00:14:26.762Z,15.30
2018-05-04T00:15:26.702Z,15.31
2018-05-04T00:16:26.648Z,15.27
2018-05-04T00:17:26.594Z,15.20
2018-05-04T00:18:26.538Z,15.20
2018-05-04T00:19:26.483Z,15.27
2018-05-04T00:20:26.435Z,15.19
2018-05-04T00:21:26.373Z,15.15
2018-05-04T00:22:26.317Z,15.20
2018-05-04T00:23:26.266Z,15.27
2018-05-04T00:24:26.207Z,15.36
2018-05-04T00:25:26.151Z,15.48
2018-05-04T00:26:26.096Z,15.54
2018-05-04T00:27:26.041Z,15.46
2018-05-04T00:28:25.994Z,15.46
2018-05-04T00:29:25.932Z,15.36
2018-05-04T00:30:25.877Z,15.30
2018-05-04T00:31:25.823Z,15.30
2018-05-04T00:32:25.766Z,15.35
2018-05-04T00:33:25.712Z,15.36
2018-05-04T00:34:25.659Z,15.38
2018-05-04T00:35:25.602Z,15.39
2018-05-04T00:36:25.546Z,15.39
2018-05-04T00:37:25.489Z,15.33
2018-05-04T00:38:25.436Z,15.43
2018-05-04T00:39:25.380Z,15.39
2018-05-04T00:40:25.327Z,15.39
2018-05-04T00:41:25.271Z,15.38
2018-05-04T00:42:25.214Z,15.28
2018-05-04T00:43:25.159Z,15.36
2018-05-04T00:44:25.103Z,15.30
2018-05-04T00:45:25.048Z,15.21
2018-05-04T00:46:24.994Z,15.27
2018-05-04T00:47:24.937Z,15.20
2018-05-04T00:48:24.883Z,15.11
2018-05-04T00:49:24.828Z,15.13
2018-05-04T00:50:24.773Z,15.12
2018-05-04T00:51:24.716Z,15.06
2018-05-04T00:52:24.663Z,15.11
2018-05-04T00:53:24.605Z,15.12
2018-05-04T00:54:24.554Z,15.15
2018-05-04T00:55:24.497Z,15.17
2018-05-04T00:56:24.440Z,15.05
2018-05-04T00:57:24.384Z,15.15
2018-05-04T00:58:24.329Z,15.05
2018-05-04T00:59:24.274Z,14.91
2018-05-04T01:00:24.218Z,15.06
2018-05-04T01:01:24.162Z,14.95
2018-05-04T01:02:24.107Z,14.94
2018-05-04T01:03:24.053Z,14.88
2018-05-04T01:04:23.997Z,14.94
2018-05-04T01:05:23.940Z,14.88
2018-05-04T01:06:23.884Z,14.83
2018-05-04T01:07:23.830Z,14.75
2018-05-04T01:08:23.776Z,14.78
2018-05-04T01:09:23.719Z,14.65
2018-05-04T01:10:23.664Z,14.64
2018-05-04T01:11:23.610Z,14.54
2018-05-04T01:12:23.553Z,14.52
2018-05-04T01:13:23.496Z,14.49
2018-05-04T01:14:23.444Z,14.43
2018-05-04T01:15:23.387Z,14.38
2018-05-04T01:16:23.334Z,14.32
2018-05-04T01:17:23.307Z,14.35
2018-05-04T01:18:23.286Z,14.21
2018-05-04T01:19:23.167Z,14.31
2018-05-04T01:20:23.109Z,14.34
2018-05-04T01:21:23.052Z,14.24
2018-05-04T01:22:22.999Z,14.34
2018-05-04T01:23:22.944Z,14.28
2018-05-04T01:24:22.888Z,14.21
2018-05-04T01:25:22.833Z,14.16
2018-05-04T01:26:22.780Z,14.07
2018-05-04T01:27:22.720Z,14.13
2018-05-04T01:28:22.668Z,14.09
2018-05-04T01:29:22.608Z,14.01
2018-05-04T01:30:22.553Z,13.84
2018-05-04T01:31:22.497Z,14.01
2018-05-04T01:32:22.442Z,14.07
2018-05-04T01:33:22.386Z,14.24
2018-05-04T01:34:22.330Z,14.28
2018-05-04T01:35:22.279Z,14.35
2018-05-04T01:36:22.218Z,14.35
2018-05-04T01:37:22.166Z,14.38
2018-05-04T01:38:22.106Z,14.42
2018-05-04T01:39:22.051Z,14.44
2018-05-04T01:40:21.995Z,14.53
2018-05-04T01:41:21.947Z,14.56
2018-05-04T01:42:21.887Z,14.62
2018-05-04T01:43:21.827Z,14.54
2018-05-04T01:44:21.773Z,14.53
2018-05-04T01:45:21.717Z,14.60
2018-05-04T01:46:21.660Z,14.68
2018-05-04T01:47:21.607Z,14.65
2018-05-04T01:48:21.549Z,14.69
2018-05-04T01:49:21.494Z,14.64
2018-05-04T01:50:21.440Z,14.67
2018-05-04T01:51:21.381Z,14.69
2018-05-04T01:52:21.325Z,14.61
2018-05-04T01:53:21.269Z,14.78
2018-05-04T01:54:21.222Z,14.84
2018-05-04T01:55:21.158Z,14.74
2018-05-04T01:56:21.103Z,14.83
2018-05-04T01:57:21.046Z,14.68
2018-05-04T01:58:20.990Z,14.67
2018-05-04T01:59:20.937Z,14.62
2018-05-04T02:00:20.879Z,14.65
2018-05-04T02:01:20.823Z,14.50
2018-05-04T02:02:20.769Z,14.52
2018-05-04T02:03:20.713Z,14.52
2018-05-04T02:04:20.657Z,14.39
2018-05-04T02:05:20.600Z,14.35
2018-05-04T02:06:20.545Z,14.31
2018-05-04T02:07:20.487Z,14.27
2018-05-04T02:08:20.433Z,14.21
2018-05-04T02:09:20.376Z,14.20
2018-05-04T02:10:20.320Z,14.27
2018-05-04T02:11:20.265Z,14.17
2018-05-04T02:12:20.209Z,14.19
2018-05-04T02:13:20.153Z,14.10
2018-05-04T02:14:20.098Z,14.14
2018-05-04T02:15:20.041Z,14.13
2018-05-04T02:16:19.990Z,14.09
2018-05-04T02:17:19.931Z,14.21
2018-05-04T02:18:19.883Z,14.25
2018-05-04T02:19:19.818Z,14.34
2018-05-04T02:20:19.763Z,14.35
2018-05-04T02:21:19.706Z,14.39
2018-05-04T02:22:19.654Z,14.35
2018-05-04T02:23:19.595Z,14.32
2018-05-04T02:24:19.539Z,14.21
2018-05-04T02:25:19.482Z,14.19
2018-05-04T02:26:19.429Z,14.32
2018-05-04T02:27:19.379Z,14.19
2018-05-04T02:28:19.386Z,14.32
2018-05-04T02:29:19.258Z,14.21
2018-05-04T02:30:19.211Z,14.20
2018-05-04T02:31:19.149Z,14.14
2018-05-04T02:32:19.093Z,14.20
2018-05-04T02:33:19.035Z,14.35
2018-05-04T02:34:18.985Z,14.37
2018-05-04T02:35:18.924Z,14.44
2018-05-04T02:36:18.869Z,14.39
2018-05-04T02:37:18.816Z,14.32
2018-05-04T02:38:18.756Z,14.34
2018-05-04T02:39:18.698Z,14.24
2018-05-04T02:40:18.645Z,14.12
2018-05-04T02:41:18.586Z,13.99
2018-05-04T02:42:18.533Z,13.96
2018-05-04T02:43:18.475Z,14.01
2018-05-04T02:44:18.421Z,14.06
2018-05-04T02:45:18.363Z,13.96
2018-05-04T02:46:18.312Z,14.01
2018-05-04T02:47:18.257Z,13.91
2018-05-04T02:48:18.196Z,13.98
2018-05-04T02:49:18.138Z,13.81
2018-05-04T02:50:18.083Z,13.89
2018-05-04T02:51:18.029Z,13.91
2018-05-04T02:52:17.971Z,14.01
2018-05-04T02:53:17.914Z,14.09
2018-05-04T02:54:17.862Z,14.10
2018-05-04T02:55:17.806Z,14.14
2018-05-04T02:56:17.759Z,14.21
2018-05-04T02:57:17.693Z,14.24
2018-05-04T02:58:17.634Z,14.19
2018-05-04T02:59:17.579Z,14.28
2018-05-04T03:00:17.527Z,14.28
2018-05-04T03:01:17.468Z,14.20
2018-05-04T03:02:17.411Z,14.25
2018-05-04T03:03:17.357Z,14.16
2018-05-04T03:04:17.299Z,14.19
2018-05-04T03:05:17.243Z,14.27
2018-05-04T03:06:17.187Z,14.32
2018-05-04T03:07:17.134Z,14.38
2018-05-04T03:08:17.077Z,14.49
2018-05-04T03:09:17.021Z,14.54
2018-05-04T03:10:16.963Z,14.60
2018-05-04T03:11:16.908Z,14.56
2018-05-04T03:12:16.852Z,14.56
2018-05-04T03:13:16.795Z,14.56
2018-05-04T03:14:16.744Z,14.68
2018-05-04T03:15:16.684Z,14.60
2018-05-04T03:16:16.629Z,14.56
2018-05-04T03:17:16.570Z,14.56
2018-05-04T03:18:16.515Z,14.53
2018-05-04T03:19:16.459Z,14.35
2018-05-04T03:20:16.403Z,14.46
2018-05-04T03:21:16.348Z,14.43
2018-05-04T03:22:16.294Z,14.49
2018-05-04T03:23:16.241Z,14.49
2018-05-04T03:24:16.180Z,14.39
2018-05-04T03:25:16.127Z,14.34
2018-05-04T03:26:16.066Z,14.32
2018-05-04T03:27:16.012Z,14.39
2018-05-04T03:28:15.956Z,14.43
2018-05-04T03:29:15.900Z,14.35
2018-05-04T03:30:15.850Z,14.38
2018-05-04T03:31:15.791Z,14.42
2018-05-04T03:32:15.731Z,14.39
2018-05-04T03:33:15.675Z,14.47
2018-05-04T03:34:15.619Z,14.43
2018-05-04T03:35:15.566Z,14.44
2018-05-04T03:36:15.507Z,14.32
2018-05-04T03:37:15.451Z,14.42
2018-05-04T03:38:15.395Z,14.39
2018-05-04T03:39:15.338Z,14.42
2018-05-04T03:40:15.286Z,14.39
2018-05-04T03:41:15.227Z,14.42
2018-05-04T03:42:15.172Z,14.42
2018-05-04T03:43:15.115Z,14.38
2018-05-04T03:44:15.058Z,14.42
2018-05-04T03:45:15.001Z,14.42
2018-05-04T03:46:14.945Z,14.43
2018-05-04T03:47:14.890Z,14.37
2018-05-04T03:48:14.837Z,14.32
2018-05-04T03:49:14.785Z,14.38
2018-05-04T03:50:14.724Z,14.35
2018-05-04T03:51:14.666Z,14.34
2018-05-04T03:52:14.610Z,14.31
2018-05-04T03:53:14.554Z,14.35
2018-05-04T03:54:14.505Z,14.35
2018-05-04T03:55:14.442Z,14.34
2018-05-04T03:56:14.388Z,14.37
2018-05-04T03:57:14.334Z,14.31
2018-05-04T03:58:14.277Z,14.35
2018-05-04T03:59:14.218Z,14.34
2018-05-04T04:00:14.170Z,14.31
2018-05-04T04:01:14.110Z,14.31
2018-05-04T04:02:14.052Z,14.35
2018-05-04T04:03:14.092Z,14.38
2018-05-04T04:04:13.940Z,14.32
2018-05-04T04:05:13.883Z,14.46
2018-05-04T04:06:13.827Z,14.43
2018-05-04T04:07:13.772Z,14.44
2018-05-04T04:08:13.717Z,14.32
2018-05-04T04:09:13.661Z,14.43
2018-05-04T04:10:13.602Z,14.43
2018-05-04T04:11:13.546Z,14.35
2018-05-04T04:12:13.491Z,14.47
2018-05-04T04:13:13.435Z,14.31
2018-05-04T04:14:13.377Z,14.34
2018-05-04T04:15:13.321Z,14.35
2018-05-04T04:16:13.270Z,14.34
2018-05-04T04:17:13.209Z,14.35
2018-05-04T04:18:13.155Z,14.35
2018-05-04T04:19:13.098Z,14.29
2018-05-04T04:20:13.041Z,14.37
2018-05-04T04:21:12.984Z,14.37
2018-05-04T04:22:12.928Z,14.29
2018-05-04T04:23:12.877Z,14.21
2018-05-04T04:24:12.815Z,14.20
2018-05-04T04:25:12.767Z,14.19
2018-05-04T04:26:12.705Z,14.13
2018-05-04T04:27:12.654Z,14.14
2018-05-04T04:28:12.597Z,14.19
2018-05-04T04:29:12.537Z,14.12
2018-05-04T04:30:12.480Z,14.21
2018-05-04T04:31:12.428Z,14.19
2018-05-04T04:32:12.368Z,14.24
2018-05-04T04:33:12.310Z,14.27
2018-05-04T04:34:12.257Z,14.16
2018-05-04T04:35:12.201Z,14.07
2018-05-04T04:36:12.145Z,14.04
2018-05-04T04:37:12.088Z,14.10
2018-05-04T04:38:12.032Z,14.10
2018-05-04T04:39:11.976Z,14.14
2018-05-04T04:40:11.919Z,14.20
2018-05-04T04:41:11.863Z,14.20
2018-05-04T04:42:11.807Z,14.24
2018-05-04T04:43:11.751Z,14.27
2018-05-04T04:44:11.695Z,14.24
2018-05-04T04:45:11.649Z,14.32
2018-05-04T04:46:11.593Z,14.27
2018-05-04T04:47:11.527Z,14.25
2018-05-04T04:48:11.471Z,14.28
2018-05-04T04:49:11.413Z,14.28
2018-05-04T04:50:11.359Z,14.25
2018-05-04T04:51:11.300Z,14.21
2018-05-04T04:52:11.244Z,14.28
2018-05-04T04:53:11.190Z,14.25
2018-05-04T04:54:11.135Z,14.20
2018-05-04T04:55:11.076Z,14.27
2018-05-04T04:56:11.021Z,14.24
2018-05-04T04:57:10.963Z,14.21
2018-05-04T04:58:10.908Z,14.14
2018-05-04T04:59:10.854Z,14.25
2018-05-04T05:00:10.796Z,14.24
2018-05-04T05:01:10.739Z,14.19
2018-05-04T05:02:10.682Z,14.20
2018-05-04T05:03:10.625Z,14.24
2018-05-04T05:04:10.571Z,14.21
2018-05-04T05:05:10.516Z,14.24
2018-05-04T05:06:10.459Z,14.29
2018-05-04T05:07:10.403Z,14.27
2018-05-04T05:08:10.347Z,14.28
2018-05-04T05:09:10.288Z,14.28
2018-05-04T05:10:10.233Z,14.25
2018-05-04T05:11:10.176Z,14.29
2018-05-04T05:12:10.120Z,14.19
2018-05-04T05:13:10.067Z,14.21
2018-05-04T05:14:10.007Z,14.13
2018-05-04T05:15:09.953Z,14.17
2018-05-04T05:16:09.895Z,14.17
2018-05-04T05:17:09.838Z,14.19
2018-05-04T05:18:09.782Z,14.20
2018-05-04T05:19:09.726Z,14.21
2018-05-04T05:20:09.671Z,14.21
2018-05-04T05:21:09.615Z,14.24
2018-05-04T05:22:09.558Z,14.21
2018-05-04T05:23:09.502Z,14.19
2018-05-04T05:24:09.447Z,14.20
2018-05-04T05:25:09.391Z,14.16
2018-05-04T05:26:09.333Z,14.19
2018-05-04T05:27:09.277Z,14.21
2018-05-04T05:28:09.222Z,14.17
2018-05-04T05:29:09.166Z,14.27
2018-05-04T05:30:09.110Z,14.20
2018-05-04T05:31:09.054Z,14.21
2018-05-04T05:32:08.998Z,14.24
2018-05-04T05:33:08.941Z,14.27
2018-05-04T05:34:08.891Z,14.24
2018-05-04T05:35:08.831Z,14.29
2018-05-04T05:36:08.774Z,14.21
2018-05-04T05:37:08.721Z,14.31
2018-05-04T05:38:08.663Z,14.35
2018-05-04T05:39:08.605Z,14.37
2018-05-04T05:40:08.550Z,14.32
2018-05-04T05:41:08.495Z,14.35
2018-05-04T05:42:08.438Z,14.32
2018-05-04T05:43:08.384Z,14.35
2018-05-04T05:44:08.325Z,14.43
2018-05-04T05:45:08.281Z,14.35
2018-05-04T05:46:08.216Z,14.37
2018-05-04T05:47:08.160Z,14.37
2018-05-04T05:48:08.102Z,14.49
2018-05-04T05:49:08.047Z,14.53
2018-05-04T05:50:07.990Z,14.54
2018-05-04T05:51:07.935Z,14.57
2018-05-04T05:52:07.880Z,14.50
2018-05-04T05:53:07.824Z,14.56
2018-05-04T05:54:07.768Z,14.54
2018-05-04T05:55:07.711Z,14.57
2018-05-04T05:56:07.655Z,14.52
2018-05-04T05:57:07.598Z,14.56
2018-05-04T05:58:07.623Z,14.60
2018-05-04T05:59:07.495Z,14.65
2018-05-04T06:00:07.435Z,14.67
2018-05-04T06:01:07.375Z,14.67
2018-05-04T06:02:07.318Z,14.65
2018-05-04T06:03:07.263Z,14.65
2018-05-04T06:04:07.280Z,14.69
2018-05-04T06:05:07.156Z,14.68
2018-05-04T06:06:07.098Z,14.68
2018-05-04T06:07:07.040Z,14.81
2018-05-04T06:08:06.984Z,14.69
2018-05-04T06:09:06.930Z,14.78
2018-05-04T06:10:06.873Z,14.75
2018-05-04T06:11:06.820Z,14.86
2018-05-04T06:12:06.762Z,14.88
2018-05-04T06:13:06.706Z,14.88
2018-05-04T06:14:06.654Z,14.87
2018-05-04T06:15:06.676Z,14.90
2018-05-04T06:16:06.541Z,14.87
2018-05-04T06:17:06.486Z,14.86
2018-05-04T06:18:06.428Z,14.86
2018-05-04T06:19:06.379Z,14.94
2018-05-04T06:20:06.317Z,14.91
2018-05-04T06:21:06.261Z,14.90
2018-05-04T06:22:06.213Z,14.87
2018-05-04T06:23:06.153Z,14.90
2018-05-04T06:24:06.099Z,14.94
2018-05-04T06:25:06.058Z,14.93
2018-05-04T06:26:05.985Z,14.99
2018-05-04T06:27:05.928Z,14.99
2018-05-04T06:28:05.876Z,15.05
2018-05-04T06:29:05.818Z,14.98
2018-05-04T06:30:05.763Z,15.02
2018-05-04T06:31:05.706Z,15.08
2018-05-04T06:32:05.650Z,15.12
2018-05-04T06:33:05.593Z,15.19
2018-05-04T06:34:05.538Z,15.17
2018-05-04T06:35:05.486Z,15.20
2018-05-04T06:36:05.427Z,15.17
2018-05-04T06:37:05.370Z,15.13
2018-05-04T06:38:05.316Z,15.17
2018-05-04T06:39:05.260Z,15.11
2018-05-04T06:40:05.206Z,15.13
2018-05-04T06:41:05.152Z,15.26
2018-05-04T06:42:05.094Z,15.35
2018-05-04T06:43:05.038Z,15.24
2018-05-04T06:44:05.001Z,15.35
2018-05-04T06:45:04.927Z,15.38
2018-05-04T06:46:04.873Z,15.41
2018-05-04T06:47:04.819Z,15.28
2018-05-04T06:48:04.767Z,15.31
2018-05-04T06:49:04.707Z,15.36
2018-05-04T06:50:04.651Z,15.43
2018-05-04T06:51:04.597Z,15.45
2018-05-04T06:52:04.543Z,15.49
2018-05-04T06:53:04.487Z,15.49
2018-05-04T06:54:04.430Z,15.52
2018-05-04T06:55:04.374Z,15.48
2018-05-04T06:56:04.319Z,15.48
2018-05-04T06:57:04.263Z,15.48
2018-05-04T06:58:04.211Z,15.61
2018-05-04T06:59:04.153Z,15.72
2018-05-04T07:00:04.102Z,15.89
2018-05-04T07:01:04.044Z,16.01
2018-05-04T07:02:03.988Z,16.09
2018-05-04T07:03:03.933Z,16.33
2018-05-04T07:04:03.880Z,16.40
2018-05-04T07:05:03.824Z,16.52
2018-05-04T07:06:03.766Z,16.68
2018-05-04T07:07:03.712Z,16.78
2018-05-04T07:08:03.658Z,16.77
2018-05-04T07:09:03.819Z,16.88
2018-05-04T07:10:03.552Z,16.93
2018-05-04T07:11:03.496Z,16.98
2018-05-04T07:12:03.441Z,16.93
2018-05-04T07:13:03.385Z,16.86
2018-05-04T07:14:03.333Z,16.90
2018-05-04T07:15:03.328Z,17.03
2018-05-04T07:16:03.224Z,17.17
2018-05-04T07:17:03.169Z,17.38
2018-05-04T07:18:03.113Z,17.29
2018-05-04T07:19:03.061Z,17.36
2018-05-04T07:20:03.006Z,17.15
2018-05-04T07:21:02.952Z,16.98
2018-05-04T07:22:02.968Z,17.03
2018-05-04T07:23:02.845Z,17.10
2018-05-04T07:24:02.793Z,17.18
2018-05-04T07:25:02.737Z,17.20
2018-05-04T07:26:02.682Z,17.22
2018-05-04T07:27:02.631Z,16.86
2018-05-04T07:28:02.581Z,16.86
2018-05-04T07:29:02.519Z,16.99
2018-05-04T07:30:02.467Z,16.96
2018-05-04T07:31:02.413Z,16.71
2018-05-04T07:32:02.360Z,16.75
2018-05-04T07:33:02.307Z,16.93
2018-05-04T07:34:02.251Z,16.95
2018-05-04T07:35:02.198Z,17.00
2018-05-04T07:36:02.181Z,17.11
2018-05-04T07:37:02.166Z,17.03
2018-05-04T07:38:02.035Z,16.86
2018-05-04T07:39:01.982Z,16.75
2018-05-04T07:40:01.929Z,16.74
2018-05-04T07:41:01.877Z,16.73
2018-05-04T07:42:01.851Z,16.95
2018-05-04T07:43:01.779Z,16.93
2018-05-04T07:44:01.714Z,16.99
2018-05-04T07:45:01.662Z,17.13
2018-05-04T07:46:01.603Z,17.10
2018-05-04T07:47:01.550Z,17.13
2018-05-04T07:48:01.499Z,16.99
2018-05-04T07:49:01.500Z,16.90
2018-05-04T07:50:01.420Z,17.06
2018-05-04T07:51:01.341Z,16.96
2018-05-04T07:52:01.284Z,17.06
2018-05-04T07:53:01.230Z,16.74
2018-05-04T07:54:01.176Z,16.75
2018-05-04T07:55:01.119Z,16.75
2018-05-04T07:56:01.065Z,16.65
2018-05-04T07:57:01.011Z,16.67
2018-05-04T07:58:00.958Z,16.65
2018-05-04T07:59:00.905Z,16.77
2018-05-04T08:00:00.849Z,16.68
2018-05-04T08:01:00.796Z,16.65
2018-05-04T08:02:00.750Z,16.78
2018-05-04T08:03:00.718Z,16.86
2018-05-04T08:04:00.634Z,16.85
2018-05-04T08:05:00.584Z,16.96
2018-05-04T08:06:00.527Z,17.08
2018-05-04T08:07:00.474Z,17.20
2018-05-04T08:08:00.418Z,17.13
2018-05-04T08:09:00.364Z,17.20
2018-05-04T08:10:00.309Z,17.35
2018-05-04T08:11:00.256Z,17.57
2018-05-04T08:12:00.203Z,17.74
2018-05-04T08:13:00.150Z,17.84
2018-05-04T08:14:00.095Z,17.84
2018-05-04T08:15:00.046Z,17.87
2018-05-04T08:15:59.988Z,17.87
2018-05-04T08:16:59.934Z,17.92
2018-05-04T08:17:59.886Z,18.09
2018-05-04T08:18:59.828Z,18.21
2018-05-04T08:19:59.787Z,18.59
2018-05-04T08:20:59.725Z,18.73
2018-05-04T08:21:59.668Z,18.72
2018-05-04T08:22:59.616Z,18.74
2018-05-04T08:23:59.563Z,18.68
2018-05-04T08:24:59.508Z,18.72
2018-05-04T08:25:59.457Z,18.65
2018-05-04T08:26:59.406Z,18.47
2018-05-04T08:27:59.351Z,18.31
2018-05-04T08:28:59.296Z,18.36
2018-05-04T08:29:59.244Z,18.28
2018-05-04T08:30:59.266Z,18.39
2018-05-04T08:31:59.143Z,18.25
2018-05-04T08:32:59.087Z,18.24
2018-05-04T08:33:59.033Z,18.43
2018-05-04T08:34:58.981Z,18.55
2018-05-04T08:35:58.930Z,18.76
2018-05-04T08:36:58.875Z,19.02
2018-05-04T08:37:58.838Z,19.17
2018-05-04T08:38:58.808Z,19.14
2018-05-04T08:39:58.720Z,19.10
2018-05-04T08:40:58.719Z,19.11
2018-05-04T08:41:58.613Z,19.10
2018-05-04T08:42:58.654Z,19.06
2018-05-04T08:43:58.507Z,19.14
2018-05-04T08:44:58.455Z,19.01
2018-05-04T08:45:58.404Z,19.08
2018-05-04T08:46:58.350Z,19.20
2018-05-04T08:47:58.298Z,19.25
2018-05-04T08:48:58.252Z,19.29
2018-05-04T08:49:58.193Z,19.24
2018-05-04T08:50:58.215Z,19.28
2018-05-04T08:51:58.088Z,19.17
2018-05-04T08:52:58.036Z,19.15
2018-05-04T08:53:57.984Z,19.01
2018-05-04T08:54:57.932Z,18.95
2018-05-04T08:55:57.878Z,19.08
2018-05-04T08:56:57.828Z,19.24
2018-05-04T08:57:57.775Z,19.23
2018-05-04T08:58:57.721Z,19.14
2018-05-04T08:59:57.670Z,19.11
2018-05-04T09:00:57.617Z,19.15
2018-05-04T09:01:57.575Z,19.17
2018-05-04T09:02:57.514Z,19.20
2018-05-04T09:03:57.461Z,19.13
2018-05-04T09:04:57.407Z,19.21
2018-05-04T09:05:57.355Z,19.11
2018-05-04T09:06:57.302Z,19.06
2018-05-04T09:07:57.251Z,18.91
2018-05-04T09:08:57.200Z,19.08
2018-05-04T09:09:57.147Z,19.24
2018-05-04T09:10:57.093Z,19.39
2018-05-04T09:11:57.041Z,19.35
2018-05-04T09:12:56.998Z,19.57
2018-05-04T09:13:56.937Z,19.51
2018-05-04T09:14:56.884Z,19.76
2018-05-04T09:15:56.833Z,19.88
2018-05-04T09:16:56.784Z,19.93
2018-05-04T09:17:56.732Z,19.65
2018-05-04T09:18:56.677Z,19.50
2018-05-04T09:19:56.643Z,19.63
2018-05-04T09:20:56.573Z,19.76
2018-05-04T09:21:56.520Z,19.88
2018-05-04T09:22:56.469Z,20.16
2018-05-04T09:23:56.421Z,20.31
2018-05-04T09:24:56.365Z,20.51
2018-05-04T09:25:56.315Z,20.65
2018-05-04T09:26:56.262Z,20.77
2018-05-04T09:27:56.209Z,20.72
2018-05-04T09:28:56.159Z,20.51
2018-05-04T09:29:56.108Z,20.53
2018-05-04T09:30:56.103Z,20.59
2018-05-04T09:31:56.005Z,20.71
2018-05-04T09:32:55.953Z,20.58
2018-05-04T09:33:55.903Z,20.39
2018-05-04T09:34:55.851Z,20.28
2018-05-04T09:35:55.799Z,20.33
2018-05-04T09:36:55.747Z,20.33
2018-05-04T09:37:55.697Z,20.58
2018-05-04T09:38:55.650Z,20.47
2018-05-04T09:39:55.596Z,20.34
2018-05-04T09:40:55.545Z,20.62
2018-05-04T09:41:55.492Z,20.81
2018-05-04T09:42:55.440Z,20.80
2018-05-04T09:43:55.390Z,20.90
2018-05-04T09:44:55.339Z,20.93
2018-05-04T09:45:55.287Z,21.11
2018-05-04T09:46:55.237Z,21.20
2018-05-04T09:47:55.188Z,21.30
2018-05-04T09:48:55.234Z,21.19
2018-05-04T09:49:55.085Z,21.17
2018-05-04T09:50:55.038Z,21.32
2018-05-04T09:51:54.983Z,21.08
2018-05-04T09:52:54.933Z,20.90
2018-05-04T09:53:54.882Z,20.79
2018-05-04T09:54:54.834Z,20.77
2018-05-04T09:55:54.795Z,20.72
2018-05-04T09:56:54.731Z,20.87
2018-05-04T09:57:54.678Z,20.89
2018-05-04T09:58:54.627Z,20.89
2018-05-04T09:59:54.578Z,20.91
2018-05-04T10:00:54.527Z,20.69
2018-05-04T10:01:54.476Z,20.51
2018-05-04T10:02:54.426Z,20.65
2018-05-04T10:03:54.377Z,20.51
2018-05-04T10:04:54.326Z,20.47
2018-05-04T10:05:54.273Z,20.30
2018-05-04T10:06:54.223Z,20.21
2018-05-04T10:07:54.171Z,20.53
2018-05-04T10:08:54.120Z,20.69
2018-05-04T10:09:54.069Z,20.90
2018-05-04T10:10:54.018Z,21.09
2018-05-04T10:11:53.968Z,21.04
2018-05-04T10:12:53.916Z,20.99
2018-05-04T10:13:53.865Z,21.09
2018-05-04T10:14:53.814Z,21.11
2018-05-04T10:15:53.764Z,21.16
2018-05-04T10:16:53.712Z,21.45
2018-05-04T10:17:53.663Z,21.36
2018-05-04T10:18:53.612Z,21.16
2018-05-04T10:19:53.564Z,21.19
2018-05-04T10:20:53.509Z,21.38
2018-05-04T10:21:53.500Z,21.74
2018-05-04T10:22:53.408Z,21.81
2018-05-04T10:23:53.359Z,21.67
2018-05-04T10:24:53.308Z,21.51
2018-05-04T10:25:53.259Z,21.44
2018-05-04T10:26:53.208Z,21.42
2018-05-04T10:27:53.161Z,21.42
2018-05-04T10:28:53.106Z,21.46
2018-05-04T10:29:53.057Z,21.63
2018-05-04T10:30:53.096Z,21.81
2018-05-04T10:31:52.956Z,22.02
2018-05-04T10:32:52.912Z,21.97
2018-05-04T10:33:52.865Z,22.10
2018-05-04T10:34:52.807Z,22.27
2018-05-04T10:35:52.760Z,22.41
2018-05-04T10:36:52.706Z,22.23
2018-05-04T10:37:52.658Z,22.19
2018-05-04T10:38:52.630Z,22.16
2018-05-04T10:39:52.555Z,22.10
2018-05-04T10:40:52.505Z,21.99
2018-05-04T10:41:52.458Z,21.75
2018-05-04T10:42:52.407Z,21.56
2018-05-04T10:43:52.358Z,21.54
2018-05-04T10:44:52.307Z,21.63
2018-05-04T10:45:52.256Z,21.85
2018-05-04T10:46:52.206Z,22.22
2018-05-04T10:47:52.157Z,22.35
2018-05-04T10:48:52.107Z,22.59
2018-05-04T10:49:52.058Z,22.27
2018-05-04T10:50:52.008Z,22.09
2018-05-04T10:51:51.963Z,22.01
2018-05-04T10:52:51.952Z,21.98
2018-05-04T10:53:51.859Z,22.06
2018-05-04T10:54:51.814Z,22.17
2018-05-04T10:55:51.758Z,22.27
2018-05-04T10:56:51.711Z,22.20
2018-05-04T10:57:51.658Z,22.35
2018-05-04T10:58:51.615Z,22.43
2018-05-04T10:59:51.561Z,22.43
2018-05-04T11:00:51.510Z,22.22
2018-05-04T11:01:51.460Z,22.12
2018-05-04T11:02:51.411Z,22.20
2018-05-04T11:03:51.362Z,22.12
2018-05-04T11:04:51.314Z,21.82
2018-05-04T11:05:51.265Z,21.75
2018-05-04T11:06:51.215Z,21.75
2018-05-04T11:07:51.164Z,21.92
2018-05-04T11:08:51.111Z,22.17
2018-05-04T11:09:51.063Z,22.38
2018-05-04T11:10:51.013Z,22.50
2018-05-04T11:11:51.012Z,22.52
2018-05-04T11:12:50.915Z,22.53
2018-05-04T11:13:50.865Z,22.38
2018-05-04T11:14:50.816Z,22.29
2018-05-04T11:15:50.766Z,22.17
2018-05-04T11:16:50.717Z,22.02
2018-05-04T11:17:50.666Z,22.16
2018-05-04T11:18:50.617Z,22.09
2018-05-04T11:19:50.570Z,22.22
2018-05-04T11:20:50.515Z,22.25
2018-05-04T11:21:50.467Z,22.17
2018-05-04T11:22:50.419Z,22.27
2018-05-04T11:23:50.372Z,22.38
2018-05-04T11:24:50.319Z,22.44
2018-05-04T11:25:50.270Z,22.50
2018-05-04T11:26:50.219Z,22.47
2018-05-04T11:27:50.171Z,22.53
2018-05-04T11:28:50.121Z,22.57
2018-05-04T11:29:50.070Z,22.59
2018-05-04T11:30:50.023Z,22.25
2018-05-04T11:31:49.974Z,22.06
2018-05-04T11:32:49.921Z,22.14
2018-05-04T11:33:49.876Z,22.22
2018-05-04T11:34:49.823Z,22.28
2018-05-04T11:35:49.775Z,22.17
2018-05-04T11:36:49.724Z,22.28
2018-05-04T11:37:49.679Z,22.38
2018-05-04T11:38:49.706Z,22.54
2018-05-04T11:39:49.575Z,22.72
2018-05-04T11:40:49.529Z,23.02
2018-05-04T11:41:49.479Z,23.40
2018-05-04T11:42:49.428Z,23.45
2018-05-04T11:43:49.380Z,23.19
2018-05-04T11:44:49.331Z,23.24
2018-05-04T11:45:49.281Z,23.12
2018-05-04T11:46:49.233Z,23.23
2018-05-04T11:47:49.183Z,23.24
2018-05-04T11:48:49.134Z,23.19
2018-05-04T11:49:49.086Z,23.02
2018-05-04T11:50:49.037Z,23.07
2018-05-04T11:51:48.987Z,23.05
2018-05-04T11:52:48.938Z,23.09
2018-05-04T11:53:48.888Z,23.07
2018-05-04T11:54:48.840Z,22.67
2018-05-04T11:55:48.818Z,22.41
2018-05-04T11:56:48.750Z,22.35
2018-05-04T11:57:48.694Z,22.38
2018-05-04T11:58:48.645Z,22.39
2018-05-04T11:59:48.595Z,22.64
2018-05-04T12:00:48.545Z,22.74
2018-05-04T12:01:48.497Z,22.89
2018-05-04T12:02:48.449Z,23.17
2018-05-04T12:03:48.398Z,23.47
2018-05-04T12:04:48.435Z,23.89
2018-05-04T12:05:48.302Z,24.08
2018-05-04T12:06:48.251Z,24.24
2018-05-04T12:07:48.203Z,24.27
2018-05-04T12:08:48.153Z,24.29
2018-05-04T12:09:48.106Z,23.80
2018-05-04T12:10:48.122Z,23.62
2018-05-04T12:11:48.010Z,23.31
2018-05-04T12:12:47.960Z,23.24
2018-05-04T12:13:47.913Z,23.38
2018-05-04T12:14:47.862Z,23.35
2018-05-04T12:15:47.816Z,23.57
2018-05-04T12:16:47.765Z,23.61
2018-05-04T12:17:47.718Z,23.31
2018-05-04T12:18:47.670Z,23.05
2018-05-04T12:19:47.621Z,23.17
2018-05-04T12:20:47.571Z,23.24
2018-05-04T12:21:47.527Z,23.39
2018-05-04T12:22:47.554Z,23.49
2018-05-04T12:23:47.427Z,23.71
2018-05-04T12:24:47.380Z,23.83
2018-05-04T12:25:47.331Z,23.97
2018-05-04T12:26:47.281Z,23.95
2018-05-04T12:27:47.234Z,23.79
2018-05-04T12:28:47.184Z,23.55
2018-05-04T12:29:47.136Z,23.20
2018-05-04T12:30:47.088Z,23.01
2018-05-04T12:31:47.129Z,22.89
2018-05-04T12:32:46.991Z,22.96
2018-05-04T12:33:46.943Z,23.15
2018-05-04T12:34:46.895Z,23.32
2018-05-04T12:35:46.845Z,23.50
2018-05-04T12:36:46.800Z,23.35
2018-05-04T12:37:46.753Z,23.19
2018-05-04T12:38:46.699Z,23.19
2018-05-04T12:39:46.654Z,23.24
2018-05-04T12:40:46.602Z,23.29
2018-05-04T12:41:46.558Z,23.17
2018-05-04T12:42:46.507Z,23.07
2018-05-04T12:43:46.458Z,23.07
2018-05-04T12:44:46.409Z,22.99
2018-05-04T12:45:46.361Z,23.12
2018-05-04T12:46:46.312Z,23.11
2018-05-04T12:47:46.269Z,23.39
2018-05-04T12:48:46.214Z,23.26
2018-05-04T12:49:46.166Z,23.27
2018-05-04T12:50:46.117Z,23.15
2018-05-04T12:51:46.075Z,22.93